sensor_id;sensor_type;location;lat;lon;timestamp;P1;durP1;ratioP1;P2;durP2;ratioP2
20695;SDS011;10507;52.754;13.040;2023-04-24T00:01:05;7.63;;;5.18;;
20695;SDS011;10507;52.754;13.040;2023-04-24T00:03:35;7.78;;;4.80;;
20695;SDS011;10507;52.754;13.040;2023-04-24T00:06:05;7.00;;;4.65;;
20695;SDS011;10507;52.754;13.040;2023-04-24T00:08:34;7.50;;;4.75;;
20695;SDS011;10507;52.754;13.040;2023-04-24T00:11:02;8.25;;;5.00;;
20695;SDS011;10507;52.754;13.040;2023-04-24T00:13:30;7.72;;;5.43;;
20695;SDS011;10507;52.754;13.040;2023-04-24T00:15:58;7.32;;;4.93;;
20695;SDS011;10507;52.754;13.040;2023-04-24T00:18:26;6.85;;;5.25;;
20695;SDS011;10507;52.754;13.040;2023-04-24T00:20:56;7.20;;;4.57;;
20695;SDS011;10507;52.754;13.040;2023-04-24T00:23:23;6.82;;;5.10;;
20695;SDS011;10507;52.754;13.040;2023-04-24T00:25:51;6.53;;;5.07;;
20695;SDS011;10507;52.754;13.040;2023-04-24T00:28:19;7.40;;;4.95;;
20695;SDS011;10507;52.754;13.040;2023-04-24T00:30:47;6.20;;;4.95;;
20695;SDS011;10507;52.754;13.040;2023-04-24T00:33:18;6.70;;;4.75;;
20695;SDS011;10507;52.754;13.040;2023-04-24T00:35:46;7.47;;;5.00;;
20695;SDS011;10507;52.754;13.040;2023-04-24T00:38:15;7.85;;;5.05;;
20695;SDS011;10507;52.754;13.040;2023-04-24T00:40:45;6.15;;;4.65;;
20695;SDS011;10507;52.754;13.040;2023-04-24T00:43:14;11.88;;;5.60;;
20695;SDS011;10507;52.754;13.040;2023-04-24T00:45:41;8.73;;;5.20;;
20695;SDS011;10507;52.754;13.040;2023-04-24T00:48:10;8.90;;;5.43;;
20695;SDS011;10507;52.754;13.040;2023-04-24T00:50:39;9.80;;;5.30;;
20695;SDS011;10507;52.754;13.040;2023-04-24T00:53:07;7.20;;;5.15;;
20695;SDS011;10507;52.754;13.040;2023-04-24T00:55:36;6.68;;;4.85;;
20695;SDS011;10507;52.754;13.040;2023-04-24T00:58:04;7.45;;;4.95;;
20695;SDS011;10507;52.754;13.040;2023-04-24T01:00:32;7.22;;;5.20;;
20695;SDS011;10507;52.754;13.040;2023-04-24T01:03:00;10.75;;;5.38;;
20695;SDS011;10507;52.754;13.040;2023-04-24T01:05:32;6.65;;;5.03;;
20695;SDS011;10507;52.754;13.040;2023-04-24T01:08:00;7.78;;;4.90;;
20695;SDS011;10507;52.754;13.040;2023-04-24T01:10:29;7.22;;;5.38;;
20695;SDS011;10507;52.754;13.040;2023-04-24T01:13:00;7.63;;;5.10;;
20695;SDS011;10507;52.754;13.040;2023-04-24T01:15:27;6.20;;;5.00;;
20695;SDS011;10507;52.754;13.040;2023-04-24T01:17:55;6.30;;;5.18;;
20695;SDS011;10507;52.754;13.040;2023-04-24T01:20:23;6.60;;;5.07;;
20695;SDS011;10507;52.754;13.040;2023-04-24T01:22:55;6.28;;;4.90;;
20695;SDS011;10507;52.754;13.040;2023-04-24T01:25:23;8.50;;;5.82;;
20695;SDS011;10507;52.754;13.040;2023-04-24T01:27:53;6.93;;;5.50;;
20695;SDS011;10507;52.754;13.040;2023-04-24T01:30:22;7.20;;;5.60;;
20695;SDS011;10507;52.754;13.040;2023-04-24T01:32:50;7.70;;;5.88;;
20695;SDS011;10507;52.754;13.040;2023-04-24T01:35:18;7.45;;;5.30;;
20695;SDS011;10507;52.754;13.040;2023-04-24T01:37:46;8.38;;;5.45;;
20695;SDS011;10507;52.754;13.040;2023-04-24T01:40:16;10.18;;;6.07;;
20695;SDS011;10507;52.754;13.040;2023-04-24T01:42:43;9.02;;;6.10;;
20695;SDS011;10507;52.754;13.040;2023-04-24T01:45:12;8.32;;;6.20;;
20695;SDS011;10507;52.754;13.040;2023-04-24T01:47:40;10.77;;;6.72;;
20695;SDS011;10507;52.754;13.040;2023-04-24T01:50:09;10.55;;;6.40;;
20695;SDS011;10507;52.754;13.040;2023-04-24T01:52:37;8.40;;;6.03;;
20695;SDS011;10507;52.754;13.040;2023-04-24T01:55:05;11.65;;;7.47;;
20695;SDS011;10507;52.754;13.040;2023-04-24T01:57:35;9.73;;;6.70;;
20695;SDS011;10507;52.754;13.040;2023-04-24T02:00:04;9.57;;;6.63;;
20695;SDS011;10507;52.754;13.040;2023-04-24T02:02:33;10.00;;;6.63;;
20695;SDS011;10507;52.754;13.040;2023-04-24T02:05:01;10.02;;;6.20;;
20695;SDS011;10507;52.754;13.040;2023-04-24T02:07:29;10.77;;;7.05;;
20695;SDS011;10507;52.754;13.040;2023-04-24T02:09:57;9.73;;;7.20;;
20695;SDS011;10507;52.754;13.040;2023-04-24T02:12:25;11.95;;;6.82;;
20695;SDS011;10507;52.754;13.040;2023-04-24T02:14:54;10.48;;;7.28;;
20695;SDS011;10507;52.754;13.040;2023-04-24T02:17:22;8.52;;;6.43;;
20695;SDS011;10507;52.754;13.040;2023-04-24T02:19:50;10.90;;;7.53;;
20695;SDS011;10507;52.754;13.040;2023-04-24T02:22:18;10.77;;;6.57;;
20695;SDS011;10507;52.754;13.040;2023-04-24T02:24:46;9.07;;;6.45;;
20695;SDS011;10507;52.754;13.040;2023-04-24T02:27:14;10.13;;;7.20;;
20695;SDS011;10507;52.754;13.040;2023-04-24T02:29:42;8.90;;;7.03;;
20695;SDS011;10507;52.754;13.040;2023-04-24T02:32:11;9.32;;;7.32;;
20695;SDS011;10507;52.754;13.040;2023-04-24T02:34:41;10.73;;;7.05;;
20695;SDS011;10507;52.754;13.040;2023-04-24T02:37:09;9.55;;;6.43;;
20695;SDS011;10507;52.754;13.040;2023-04-24T02:39:37;11.73;;;6.90;;
20695;SDS011;10507;52.754;13.040;2023-04-24T02:42:05;11.50;;;6.70;;
20695;SDS011;10507;52.754;13.040;2023-04-24T02:44:34;9.90;;;6.95;;
20695;SDS011;10507;52.754;13.040;2023-04-24T02:47:02;11.55;;;7.63;;
20695;SDS011;10507;52.754;13.040;2023-04-24T02:49:31;9.18;;;7.07;;
20695;SDS011;10507;52.754;13.040;2023-04-24T02:51:59;12.55;;;8.00;;
20695;SDS011;10507;52.754;13.040;2023-04-24T02:54:27;10.00;;;6.68;;
20695;SDS011;10507;52.754;13.040;2023-04-24T02:56:55;9.23;;;7.70;;
20695;SDS011;10507;52.754;13.040;2023-04-24T02:59:23;9.30;;;6.97;;
20695;SDS011;10507;52.754;13.040;2023-04-24T03:01:50;9.00;;;6.65;;
20695;SDS011;10507;52.754;13.040;2023-04-24T03:04:18;9.30;;;7.80;;
20695;SDS011;10507;52.754;13.040;2023-04-24T03:06:48;8.15;;;6.80;;
20695;SDS011;10507;52.754;13.040;2023-04-24T03:09:18;9.30;;;6.88;;
20695;SDS011;10507;52.754;13.040;2023-04-24T03:11:45;8.18;;;6.78;;
20695;SDS011;10507;52.754;13.040;2023-04-24T03:14:14;11.63;;;7.05;;
20695;SDS011;10507;52.754;13.040;2023-04-24T03:16:43;8.70;;;6.50;;
20695;SDS011;10507;52.754;13.040;2023-04-24T03:19:11;7.88;;;6.28;;
20695;SDS011;10507;52.754;13.040;2023-04-24T03:21:39;8.57;;;6.38;;
20695;SDS011;10507;52.754;13.040;2023-04-24T03:24:08;8.73;;;6.68;;
20695;SDS011;10507;52.754;13.040;2023-04-24T03:26:36;8.45;;;6.05;;
20695;SDS011;10507;52.754;13.040;2023-04-24T03:29:04;9.20;;;6.97;;
20695;SDS011;10507;52.754;13.040;2023-04-24T03:31:32;9.80;;;6.95;;
20695;SDS011;10507;52.754;13.040;2023-04-24T03:34:00;8.27;;;6.55;;
20695;SDS011;10507;52.754;13.040;2023-04-24T03:36:28;8.82;;;7.05;;
20695;SDS011;10507;52.754;13.040;2023-04-24T03:38:59;8.52;;;6.47;;
20695;SDS011;10507;52.754;13.040;2023-04-24T03:41:28;9.32;;;7.25;;
20695;SDS011;10507;52.754;13.040;2023-04-24T03:43:57;8.93;;;6.75;;
20695;SDS011;10507;52.754;13.040;2023-04-24T03:46:24;10.88;;;6.95;;
20695;SDS011;10507;52.754;13.040;2023-04-24T03:48:53;9.13;;;6.88;;
20695;SDS011;10507;52.754;13.040;2023-04-24T03:51:20;9.00;;;6.72;;
20695;SDS011;10507;52.754;13.040;2023-04-24T03:53:49;7.82;;;6.32;;
20695;SDS011;10507;52.754;13.040;2023-04-24T03:56:16;8.38;;;6.57;;
20695;SDS011;10507;52.754;13.040;2023-04-24T03:58:46;8.40;;;5.72;;
20695;SDS011;10507;52.754;13.040;2023-04-24T04:01:14;7.10;;;5.85;;
20695;SDS011;10507;52.754;13.040;2023-04-24T04:03:42;7.40;;;5.60;;
20695;SDS011;10507;52.754;13.040;2023-04-24T04:06:10;8.88;;;5.93;;
20695;SDS011;10507;52.754;13.040;2023-04-24T04:08:39;7.93;;;6.25;;
20695;SDS011;10507;52.754;13.040;2023-04-24T04:11:07;8.05;;;5.97;;
20695;SDS011;10507;52.754;13.040;2023-04-24T04:13:35;8.38;;;6.03;;
20695;SDS011;10507;52.754;13.040;2023-04-24T04:16:04;7.22;;;5.72;;
20695;SDS011;10507;52.754;13.040;2023-04-24T04:18:35;7.90;;;5.30;;
20695;SDS011;10507;52.754;13.040;2023-04-24T04:21:03;6.40;;;5.45;;
20695;SDS011;10507;52.754;13.040;2023-04-24T04:23:31;6.18;;;4.88;;
20695;SDS011;10507;52.754;13.040;2023-04-24T04:25:59;7.13;;;5.60;;
20695;SDS011;10507;52.754;13.040;2023-04-24T04:28:27;6.38;;;5.03;;
20695;SDS011;10507;52.754;13.040;2023-04-24T04:30:57;6.32;;;4.68;;
20695;SDS011;10507;52.754;13.040;2023-04-24T04:33:26;6.53;;;5.03;;
20695;SDS011;10507;52.754;13.040;2023-04-24T04:35:54;6.28;;;4.95;;
20695;SDS011;10507;52.754;13.040;2023-04-24T04:38:23;7.03;;;4.90;;
20695;SDS011;10507;52.754;13.040;2023-04-24T04:40:56;7.85;;;5.28;;
20695;SDS011;10507;52.754;13.040;2023-04-24T04:43:24;7.88;;;5.10;;
20695;SDS011;10507;52.754;13.040;2023-04-24T04:45:52;7.03;;;5.18;;
20695;SDS011;10507;52.754;13.040;2023-04-24T04:48:21;6.93;;;4.90;;
20695;SDS011;10507;52.754;13.040;2023-04-24T04:50:50;9.27;;;5.30;;
20695;SDS011;10507;52.754;13.040;2023-04-24T04:53:40;5.10;;;4.28;;
20695;SDS011;10507;52.754;13.040;2023-04-24T04:56:08;6.57;;;4.50;;
20695;SDS011;10507;52.754;13.040;2023-04-24T04:58:36;7.90;;;4.60;;
20695;SDS011;10507;52.754;13.040;2023-04-24T05:01:04;6.28;;;4.25;;
20695;SDS011;10507;52.754;13.040;2023-04-24T05:03:33;4.78;;;3.97;;
20695;SDS011;10507;52.754;13.040;2023-04-24T05:06:02;6.22;;;4.00;;
20695;SDS011;10507;52.754;13.040;2023-04-24T05:08:31;6.43;;;3.78;;
20695;SDS011;10507;52.754;13.040;2023-04-24T05:10:58;4.05;;;3.15;;
20695;SDS011;10507;52.754;13.040;2023-04-24T05:13:27;3.35;;;2.88;;
20695;SDS011;10507;52.754;13.040;2023-04-24T05:16:06;6.20;;;3.60;;
20695;SDS011;10507;52.754;13.040;2023-04-24T05:18:34;4.50;;;2.42;;
20695;SDS011;10507;52.754;13.040;2023-04-24T05:21:04;4.80;;;3.15;;
20695;SDS011;10507;52.754;13.040;2023-04-24T05:23:32;3.47;;;2.60;;
20695;SDS011;10507;52.754;13.040;2023-04-24T05:26:00;4.32;;;3.30;;
20695;SDS011;10507;52.754;13.040;2023-04-24T05:28:31;4.15;;;3.13;;
20695;SDS011;10507;52.754;13.040;2023-04-24T05:31:02;5.22;;;3.05;;
20695;SDS011;10507;52.754;13.040;2023-04-24T05:33:31;4.03;;;3.00;;
20695;SDS011;10507;52.754;13.040;2023-04-24T05:35:58;2.97;;;2.45;;
20695;SDS011;10507;52.754;13.040;2023-04-24T05:38:28;3.47;;;2.92;;
20695;SDS011;10507;52.754;13.040;2023-04-24T05:40:56;4.28;;;2.78;;
20695;SDS011;10507;52.754;13.040;2023-04-24T05:43:24;3.40;;;2.33;;
20695;SDS011;10507;52.754;13.040;2023-04-24T05:45:52;3.42;;;1.80;;
20695;SDS011;10507;52.754;13.040;2023-04-24T05:48:21;2.50;;;1.80;;
20695;SDS011;10507;52.754;13.040;2023-04-24T05:50:49;2.30;;;1.63;;
20695;SDS011;10507;52.754;13.040;2023-04-24T05:53:18;3.53;;;1.70;;
20695;SDS011;10507;52.754;13.040;2023-04-24T05:55:48;3.03;;;1.60;;
20695;SDS011;10507;52.754;13.040;2023-04-24T05:58:16;5.13;;;2.50;;
20695;SDS011;10507;52.754;13.040;2023-04-24T06:00:44;2.97;;;1.35;;
20695;SDS011;10507;52.754;13.040;2023-04-24T06:03:13;3.58;;;1.33;;
20695;SDS011;10507;52.754;13.040;2023-04-24T06:05:41;1.90;;;1.50;;
20695;SDS011;10507;52.754;13.040;2023-04-24T06:08:09;2.63;;;1.17;;
20695;SDS011;10507;52.754;13.040;2023-04-24T06:10:37;1.63;;;1.10;;
20695;SDS011;10507;52.754;13.040;2023-04-24T06:13:07;2.20;;;1.23;;
20695;SDS011;10507;52.754;13.040;2023-04-24T06:15:35;2.20;;;1.00;;
20695;SDS011;10507;52.754;13.040;2023-04-24T06:18:03;1.88;;;1.05;;
20695;SDS011;10507;52.754;13.040;2023-04-24T06:20:31;2.60;;;1.27;;
20695;SDS011;10507;52.754;13.040;2023-04-24T06:22:59;2.28;;;1.05;;
20695;SDS011;10507;52.754;13.040;2023-04-24T06:25:27;2.83;;;1.10;;
20695;SDS011;10507;52.754;13.040;2023-04-24T06:27:55;2.80;;;1.00;;
20695;SDS011;10507;52.754;13.040;2023-04-24T06:30:25;1.63;;;1.05;;
20695;SDS011;10507;52.754;13.040;2023-04-24T06:32:54;2.17;;;0.82;;
20695;SDS011;10507;52.754;13.040;2023-04-24T06:35:35;2.83;;;1.00;;
20695;SDS011;10507;52.754;13.040;2023-04-24T06:38:04;3.40;;;0.98;;
20695;SDS011;10507;52.754;13.040;2023-04-24T06:40:32;1.95;;;0.93;;
20695;SDS011;10507;52.754;13.040;2023-04-24T06:43:00;2.13;;;0.80;;
20695;SDS011;10507;52.754;13.040;2023-04-24T06:45:30;2.33;;;1.00;;
20695;SDS011;10507;52.754;13.040;2023-04-24T06:47:58;1.17;;;0.68;;
20695;SDS011;10507;52.754;13.040;2023-04-24T06:50:26;2.83;;;0.80;;
20695;SDS011;10507;52.754;13.040;2023-04-24T06:52:54;2.33;;;1.13;;
20695;SDS011;10507;52.754;13.040;2023-04-24T06:55:22;1.60;;;1.00;;
20695;SDS011;10507;52.754;13.040;2023-04-24T06:57:50;2.85;;;0.98;;
20695;SDS011;10507;52.754;13.040;2023-04-24T07:00:18;3.15;;;0.80;;
20695;SDS011;10507;52.754;13.040;2023-04-24T07:02:48;0.68;;;0.60;;
20695;SDS011;10507;52.754;13.040;2023-04-24T07:05:16;2.22;;;0.80;;
20695;SDS011;10507;52.754;13.040;2023-04-24T07:07:46;1.42;;;0.85;;
20695;SDS011;10507;52.754;13.040;2023-04-24T07:10:15;0.57;;;0.43;;
20695;SDS011;10507;52.754;13.040;2023-04-24T07:12:43;2.40;;;0.95;;
20695;SDS011;10507;52.754;13.040;2023-04-24T07:15:11;2.50;;;0.75;;
20695;SDS011;10507;52.754;13.040;2023-04-24T07:17:39;1.15;;;0.50;;
20695;SDS011;10507;52.754;13.040;2023-04-24T07:20:11;0.85;;;0.50;;
20695;SDS011;10507;52.754;13.040;2023-04-24T07:22:40;1.02;;;0.50;;
20695;SDS011;10507;52.754;13.040;2023-04-24T07:25:09;2.47;;;0.70;;
20695;SDS011;10507;52.754;13.040;2023-04-24T07:27:37;1.50;;;0.60;;
20695;SDS011;10507;52.754;13.040;2023-04-24T07:30:06;0.95;;;0.60;;
20695;SDS011;10507;52.754;13.040;2023-04-24T07:32:34;0.88;;;0.50;;
20695;SDS011;10507;52.754;13.040;2023-04-24T07:35:02;0.68;;;0.50;;
20695;SDS011;10507;52.754;13.040;2023-04-24T07:37:32;1.60;;;0.52;;
20695;SDS011;10507;52.754;13.040;2023-04-24T07:40:00;1.15;;;0.50;;
20695;SDS011;10507;52.754;13.040;2023-04-24T07:42:30;1.25;;;0.63;;
20695;SDS011;10507;52.754;13.040;2023-04-24T07:44:57;0.60;;;0.38;;
20695;SDS011;10507;52.754;13.040;2023-04-24T07:47:26;1.83;;;0.50;;
20695;SDS011;10507;52.754;13.040;2023-04-24T07:49:54;0.63;;;0.50;;
20695;SDS011;10507;52.754;13.040;2023-04-24T07:52:22;1.80;;;0.57;;
20695;SDS011;10507;52.754;13.040;2023-04-24T07:54:52;1.30;;;0.40;;
20695;SDS011;10507;52.754;13.040;2023-04-24T07:57:24;0.88;;;0.40;;
20695;SDS011;10507;52.754;13.040;2023-04-24T07:59:52;2.58;;;0.45;;
20695;SDS011;10507;52.754;13.040;2023-04-24T08:02:20;0.70;;;0.32;;
20695;SDS011;10507;52.754;13.040;2023-04-24T08:04:53;0.40;;;0.35;;
20695;SDS011;10507;52.754;13.040;2023-04-24T08:07:23;1.67;;;0.43;;
20695;SDS011;10507;52.754;13.040;2023-04-24T08:09:52;1.80;;;0.70;;
20695;SDS011;10507;52.754;13.040;2023-04-24T08:12:20;0.80;;;0.50;;
20695;SDS011;10507;52.754;13.040;2023-04-24T08:14:48;0.45;;;0.40;;
20695;SDS011;10507;52.754;13.040;2023-04-24T08:17:16;1.98;;;0.50;;
20695;SDS011;10507;52.754;13.040;2023-04-24T08:19:44;0.82;;;0.77;;
20695;SDS011;10507;52.754;13.040;2023-04-24T08:22:14;0.52;;;0.40;;
20695;SDS011;10507;52.754;13.040;2023-04-24T08:24:42;1.00;;;0.70;;
20695;SDS011;10507;52.754;13.040;2023-04-24T08:27:12;0.95;;;0.68;;
20695;SDS011;10507;52.754;13.040;2023-04-24T08:29:40;1.58;;;0.70;;
20695;SDS011;10507;52.754;13.040;2023-04-24T08:32:08;1.00;;;0.80;;
20695;SDS011;10507;52.754;13.040;2023-04-24T08:34:36;1.38;;;0.65;;
20695;SDS011;10507;52.754;13.040;2023-04-24T08:37:04;1.83;;;0.60;;
20695;SDS011;10507;52.754;13.040;2023-04-24T08:39:32;3.80;;;0.63;;
20695;SDS011;10507;52.754;13.040;2023-04-24T08:42:01;2.63;;;0.57;;
20695;SDS011;10507;52.754;13.040;2023-04-24T08:44:35;2.05;;;0.80;;
20695;SDS011;10507;52.754;13.040;2023-04-24T08:47:03;0.65;;;0.45;;
20695;SDS011;10507;52.754;13.040;2023-04-24T08:49:32;2.40;;;0.70;;
20695;SDS011;10507;52.754;13.040;2023-04-24T08:52:01;1.60;;;0.60;;
20695;SDS011;10507;52.754;13.040;2023-04-24T08:54:30;1.63;;;0.70;;
20695;SDS011;10507;52.754;13.040;2023-04-24T08:56:59;1.10;;;0.68;;
20695;SDS011;10507;52.754;13.040;2023-04-24T08:59:30;2.35;;;0.63;;
20695;SDS011;10507;52.754;13.040;2023-04-24T09:01:59;1.80;;;0.70;;
20695;SDS011;10507;52.754;13.040;2023-04-24T09:04:30;1.98;;;0.82;;
20695;SDS011;10507;52.754;13.040;2023-04-24T09:07:00;1.05;;;0.63;;
20695;SDS011;10507;52.754;13.040;2023-04-24T09:09:30;1.48;;;0.80;;
20695;SDS011;10507;52.754;13.040;2023-04-24T09:12:00;4.70;;;0.95;;
20695;SDS011;10507;52.754;13.040;2023-04-24T09:14:30;1.05;;;0.65;;
20695;SDS011;10507;52.754;13.040;2023-04-24T09:17:00;2.00;;;0.90;;
20695;SDS011;10507;52.754;13.040;2023-04-24T09:19:28;2.05;;;0.70;;
20695;SDS011;10507;52.754;13.040;2023-04-24T09:21:55;1.75;;;0.52;;
20695;SDS011;10507;52.754;13.040;2023-04-24T09:24:24;0.60;;;0.60;;
20695;SDS011;10507;52.754;13.040;2023-04-24T09:26:55;1.73;;;0.82;;
20695;SDS011;10507;52.754;13.040;2023-04-24T09:29:25;4.45;;;0.73;;
20695;SDS011;10507;52.754;13.040;2023-04-24T09:31:53;1.60;;;0.68;;
20695;SDS011;10507;52.754;13.040;2023-04-24T09:34:22;1.88;;;0.80;;
20695;SDS011;10507;52.754;13.040;2023-04-24T09:36:51;2.22;;;0.60;;
20695;SDS011;10507;52.754;13.040;2023-04-24T09:39:20;3.90;;;0.68;;
20695;SDS011;10507;52.754;13.040;2023-04-24T09:41:49;1.85;;;0.75;;
20695;SDS011;10507;52.754;13.040;2023-04-24T09:44:42;1.27;;;0.60;;
20695;SDS011;10507;52.754;13.040;2023-04-24T09:47:11;1.40;;;0.70;;
20695;SDS011;10507;52.754;13.040;2023-04-24T09:49:40;2.95;;;0.70;;
20695;SDS011;10507;52.754;13.040;2023-04-24T09:52:11;2.22;;;0.77;;
20695;SDS011;10507;52.754;13.040;2023-04-24T09:54:39;2.53;;;0.60;;
20695;SDS011;10507;52.754;13.040;2023-04-24T09:57:07;2.00;;;0.63;;
20695;SDS011;10507;52.754;13.040;2023-04-24T09:59:35;1.30;;;0.60;;
20695;SDS011;10507;52.754;13.040;2023-04-24T10:02:16;1.33;;;0.70;;
20695;SDS011;10507;52.754;13.040;2023-04-24T10:04:53;1.00;;;0.60;;
20695;SDS011;10507;52.754;13.040;2023-04-24T10:07:25;1.90;;;0.82;;
20695;SDS011;10507;52.754;13.040;2023-04-24T10:09:53;2.33;;;0.70;;
20695;SDS011;10507;52.754;13.040;2023-04-24T10:12:22;1.00;;;0.77;;
20695;SDS011;10507;52.754;13.040;2023-04-24T10:14:51;2.45;;;0.80;;
20695;SDS011;10507;52.754;13.040;2023-04-24T10:17:20;1.63;;;1.05;;
20695;SDS011;10507;52.754;13.040;2023-04-24T10:19:51;1.27;;;0.75;;
20695;SDS011;10507;52.754;13.040;2023-04-24T10:22:19;2.58;;;1.05;;
20695;SDS011;10507;52.754;13.040;2023-04-24T10:24:48;4.70;;;2.10;;
20695;SDS011;10507;52.754;13.040;2023-04-24T10:27:17;3.20;;;1.20;;
20695;SDS011;10507;52.754;13.040;2023-04-24T10:29:47;4.05;;;1.45;;
20695;SDS011;10507;52.754;13.040;2023-04-24T10:32:20;8.02;;;2.95;;
20695;SDS011;10507;52.754;13.040;2023-04-24T10:34:48;1.33;;;0.80;;
20695;SDS011;10507;52.754;13.040;2023-04-24T10:37:17;2.28;;;1.05;;
20695;SDS011;10507;52.754;13.040;2023-04-24T10:39:47;4.32;;;1.60;;
20695;SDS011;10507;52.754;13.040;2023-04-24T10:42:17;1.67;;;0.90;;
20695;SDS011;10507;52.754;13.040;2023-04-24T10:44:48;1.60;;;0.70;;
20695;SDS011;10507;52.754;13.040;2023-04-24T10:47:16;3.90;;;0.95;;
20695;SDS011;10507;52.754;13.040;2023-04-24T10:49:44;2.58;;;1.00;;
20695;SDS011;10507;52.754;13.040;2023-04-24T10:52:13;1.85;;;0.93;;
20695;SDS011;10507;52.754;13.040;2023-04-24T10:54:44;1.95;;;0.77;;
20695;SDS011;10507;52.754;13.040;2023-04-24T11:02:54;2.75;;;0.93;;
20695;SDS011;10507;52.754;13.040;2023-04-24T11:05:48;1.02;;;0.70;;
20695;SDS011;10507;52.754;13.040;2023-04-24T11:08:21;1.20;;;1.00;;
20695;SDS011;10507;52.754;13.040;2023-04-24T11:10:57;0.70;;;0.60;;
20695;SDS011;10507;52.754;13.040;2023-04-24T11:16:42;1.17;;;0.77;;
20695;SDS011;10507;52.754;13.040;2023-04-24T11:19:20;1.88;;;0.60;;
20695;SDS011;10507;52.754;13.040;2023-04-24T11:21:54;2.10;;;0.80;;
20695;SDS011;10507;52.754;13.040;2023-04-24T11:24:30;1.65;;;0.80;;
20695;SDS011;10507;52.754;13.040;2023-04-24T11:27:07;1.70;;;0.52;;
20695;SDS011;10507;52.754;13.040;2023-04-24T11:29:41;1.85;;;0.95;;
20695;SDS011;10507;52.754;13.040;2023-04-24T11:32:23;0.90;;;0.68;;
20695;SDS011;10507;52.754;13.040;2023-04-24T11:34:53;2.08;;;0.82;;
20695;SDS011;10507;52.754;13.040;2023-04-24T11:37:22;1.27;;;0.93;;
20695;SDS011;10507;52.754;13.040;2023-04-24T11:39:52;1.40;;;0.70;;
20695;SDS011;10507;52.754;13.040;2023-04-24T11:42:22;1.02;;;0.70;;
20695;SDS011;10507;52.754;13.040;2023-04-24T11:44:56;2.55;;;0.77;;
20695;SDS011;10507;52.754;13.040;2023-04-24T11:47:27;1.00;;;0.63;;
20695;SDS011;10507;52.754;13.040;2023-04-24T11:49:57;2.17;;;0.90;;
20695;SDS011;10507;52.754;13.040;2023-04-24T11:52:26;1.50;;;0.63;;
20695;SDS011;10507;52.754;13.040;2023-04-24T11:54:55;3.17;;;1.02;;
20695;SDS011;10507;52.754;13.040;2023-04-24T11:57:25;1.17;;;0.70;;
20695;SDS011;10507;52.754;13.040;2023-04-24T11:59:55;1.45;;;0.80;;
20695;SDS011;10507;52.754;13.040;2023-04-24T12:02:23;1.00;;;0.82;;
20695;SDS011;10507;52.754;13.040;2023-04-24T12:04:52;4.88;;;1.02;;
20695;SDS011;10507;52.754;13.040;2023-04-24T12:07:21;3.38;;;1.00;;
20695;SDS011;10507;52.754;13.040;2023-04-24T12:09:54;3.55;;;0.70;;
20695;SDS011;10507;52.754;13.040;2023-04-24T12:12:26;4.38;;;0.98;;
20695;SDS011;10507;52.754;13.040;2023-04-24T12:14:55;3.83;;;0.70;;
20695;SDS011;10507;52.754;13.040;2023-04-24T12:17:24;4.78;;;0.90;;
20695;SDS011;10507;52.754;13.040;2023-04-24T12:19:57;3.55;;;0.80;;
20695;SDS011;10507;52.754;13.040;2023-04-24T12:22:27;3.72;;;0.68;;
20695;SDS011;10507;52.754;13.040;2023-04-24T12:24:58;3.55;;;0.93;;
20695;SDS011;10507;52.754;13.040;2023-04-24T12:27:32;2.35;;;1.10;;
20695;SDS011;10507;52.754;13.040;2023-04-24T12:30:01;3.35;;;1.38;;
20695;SDS011;10507;52.754;13.040;2023-04-24T12:32:31;1.42;;;0.70;;
20695;SDS011;10507;52.754;13.040;2023-04-24T12:34:59;2.25;;;0.85;;
20695;SDS011;10507;52.754;13.040;2023-04-24T12:37:32;1.48;;;0.90;;
20695;SDS011;10507;52.754;13.040;2023-04-24T12:40:03;2.78;;;1.10;;
20695;SDS011;10507;52.754;13.040;2023-04-24T12:42:36;2.15;;;1.25;;
20695;SDS011;10507;52.754;13.040;2023-04-24T12:45:11;1.15;;;1.00;;
20695;SDS011;10507;52.754;13.040;2023-04-24T12:47:40;1.00;;;0.90;;
20695;SDS011;10507;52.754;13.040;2023-04-24T12:50:09;1.92;;;1.10;;
20695;SDS011;10507;52.754;13.040;2023-04-24T12:52:39;1.02;;;0.90;;
20695;SDS011;10507;52.754;13.040;2023-04-24T12:55:08;1.77;;;1.00;;
20695;SDS011;10507;52.754;13.040;2023-04-24T12:57:39;3.78;;;1.40;;
20695;SDS011;10507;52.754;13.040;2023-04-24T13:00:08;1.67;;;0.95;;
20695;SDS011;10507;52.754;13.040;2023-04-24T13:02:36;2.13;;;1.17;;
20695;SDS011;10507;52.754;13.040;2023-04-24T13:05:05;2.67;;;1.10;;
20695;SDS011;10507;52.754;13.040;2023-04-24T13:07:33;1.48;;;1.00;;
20695;SDS011;10507;52.754;13.040;2023-04-24T13:10:01;1.30;;;0.98;;
20695;SDS011;10507;52.754;13.040;2023-04-24T13:12:29;2.05;;;1.05;;
20695;SDS011;10507;52.754;13.040;2023-04-24T13:14:58;1.73;;;1.00;;
20695;SDS011;10507;52.754;13.040;2023-04-24T13:17:26;1.92;;;0.90;;
20695;SDS011;10507;52.754;13.040;2023-04-24T13:19:54;1.23;;;0.93;;
20695;SDS011;10507;52.754;13.040;2023-04-24T13:22:22;3.53;;;0.80;;
20695;SDS011;10507;52.754;13.040;2023-04-24T13:24:51;3.17;;;1.02;;
20695;SDS011;10507;52.754;13.040;2023-04-24T13:27:19;1.73;;;0.90;;
20695;SDS011;10507;52.754;13.040;2023-04-24T13:29:46;1.85;;;1.05;;
20695;SDS011;10507;52.754;13.040;2023-04-24T13:32:16;2.35;;;1.02;;
20695;SDS011;10507;52.754;13.040;2023-04-24T13:34:44;2.15;;;1.10;;
20695;SDS011;10507;52.754;13.040;2023-04-24T13:37:12;2.03;;;1.30;;
20695;SDS011;10507;52.754;13.040;2023-04-24T13:39:40;1.30;;;1.10;;
20695;SDS011;10507;52.754;13.040;2023-04-24T13:42:08;1.38;;;1.10;;
20695;SDS011;10507;52.754;13.040;2023-04-24T13:44:37;1.83;;;1.33;;
20695;SDS011;10507;52.754;13.040;2023-04-24T13:47:05;0.95;;;0.85;;
20695;SDS011;10507;52.754;13.040;2023-04-24T13:49:35;1.63;;;1.25;;
20695;SDS011;10507;52.754;13.040;2023-04-24T13:52:02;1.33;;;1.10;;
20695;SDS011;10507;52.754;13.040;2023-04-24T13:54:31;2.53;;;0.90;;
20695;SDS011;10507;52.754;13.040;2023-04-24T13:56:59;1.88;;;0.90;;
20695;SDS011;10507;52.754;13.040;2023-04-24T13:59:29;2.13;;;1.00;;
20695;SDS011;10507;52.754;13.040;2023-04-24T14:01:57;1.98;;;1.10;;
20695;SDS011;10507;52.754;13.040;2023-04-24T14:04:25;4.80;;;1.25;;
20695;SDS011;10507;52.754;13.040;2023-04-24T14:06:54;1.00;;;0.90;;
20695;SDS011;10507;52.754;13.040;2023-04-24T14:09:23;1.73;;;1.10;;
20695;SDS011;10507;52.754;13.040;2023-04-24T14:11:51;3.50;;;1.30;;
20695;SDS011;10507;52.754;13.040;2023-04-24T14:14:22;1.73;;;0.90;;
20695;SDS011;10507;52.754;13.040;2023-04-24T14:16:50;1.70;;;0.95;;
20695;SDS011;10507;52.754;13.040;2023-04-24T14:19:18;1.70;;;0.85;;
20695;SDS011;10507;52.754;13.040;2023-04-24T14:21:50;1.08;;;0.95;;
20695;SDS011;10507;52.754;13.040;2023-04-24T14:24:19;1.88;;;1.08;;
20695;SDS011;10507;52.754;13.040;2023-04-24T14:26:47;2.35;;;0.95;;
20695;SDS011;10507;52.754;13.040;2023-04-24T14:29:15;2.85;;;1.20;;
20695;SDS011;10507;52.754;13.040;2023-04-24T14:31:43;1.95;;;0.98;;
20695;SDS011;10507;52.754;13.040;2023-04-24T14:34:12;1.52;;;1.10;;
20695;SDS011;10507;52.754;13.040;2023-04-24T14:36:41;3.20;;;1.25;;
20695;SDS011;10507;52.754;13.040;2023-04-24T14:39:09;3.13;;;1.17;;
20695;SDS011;10507;52.754;13.040;2023-04-24T14:41:39;1.92;;;1.10;;
20695;SDS011;10507;52.754;13.040;2023-04-24T14:44:07;1.20;;;1.10;;
20695;SDS011;10507;52.754;13.040;2023-04-24T14:46:35;3.40;;;1.48;;
20695;SDS011;10507;52.754;13.040;2023-04-24T14:49:03;1.67;;;1.20;;
20695;SDS011;10507;52.754;13.040;2023-04-24T14:51:31;1.52;;;0.95;;
20695;SDS011;10507;52.754;13.040;2023-04-24T14:53:59;3.05;;;1.17;;